Time;durP1;ratioP1;P1;durP2;ratioP2;P2;SDS_P1;SDS_P2;PMS_P1;PMS_P2;Temp;Humidity;BMP_temperature;BMP_pressure;BME280_temperature;BME280_humidity;BME280_pressure;Samples;Min_cycle;Max_cycle;Signal;HPM_P1;HPM_P2
2021/03/03 00:01:36;;;;;;;27.88;19.85;;;4.30;99.90;;;;;;5034378;28;20237;-40
2021/03/03 00:04:03;;;;;;;27.20;20.25;;;4.20;99.90;;;;;;5034663;28;20601;-40
2021/03/03 00:06:31;;;;;;;24.65;18.98;;;4.20;99.90;;;;;;5034799;28;20205;-40
2021/03/03 00:08:58;;;;;;;25.25;20.15;;;4.20;99.90;;;;;;5034128;28;20315;-40
2021/03/03 00:11:25;;;;;;;26.55;19.08;;;4.10;99.90;;;;;;5033639;28;20291;-40
2021/03/03 00:13:52;;;;;;;26.63;19.95;;;4.10;99.90;;;;;;5034192;28;20316;-39
2021/03/03 00:16:19;;;;;;;23.55;18.38;;;4.10;99.90;;;;;;5034116;28;20406;-39
2021/03/03 00:18:46;;;;;;;24.23;18.60;;;4.10;99.90;;;;;;5034296;28;20314;-41
2021/03/03 00:21:13;;;;;;;26.48;18.67;;;4.10;99.90;;;;;;5034200;28;20573;-41
2021/03/03 00:23:41;;;;;;;30.38;20.13;;;4.00;99.90;;;;;;5034039;28;20267;-40
2021/03/03 00:26:08;;;;;;;21.92;18.73;;;4.00;99.90;;;;;;5033971;28;20296;-40
2021/03/03 00:28:35;;;;;;;22.55;18.05;;;4.00;99.90;;;;;;5034167;28;20232;-40
2021/03/03 00:31:02;;;;;;;23.88;17.60;;;3.90;99.90;;;;;;5034245;28;20292;-40
2021/03/03 00:33:29;;;;;;;27.60;20.42;;;3.90;99.90;;;;;;5034072;28;20260;-40
2021/03/03 00:35:56;;;;;;;23.20;18.80;;;3.90;99.90;;;;;;5033944;28;20629;-40
2021/03/03 00:38:23;;;;;;;23.58;18.58;;;3.80;99.90;;;;;;5033718;28;20577;-39
2021/03/03 00:40:52;;;;;;;23.63;18.63;;;3.80;99.90;;;;;;5033999;28;20209;-40
2021/03/03 00:43:19;;;;;;;24.88;19.58;;;3.70;99.90;;;;;;5033753;28;20617;-40
2021/03/03 00:45:46;;;;;;;24.75;18.83;;;3.60;99.90;;;;;;5034031;28;20255;-41
2021/03/03 00:48:13;;;;;;;27.08;20.15;;;3.50;99.90;;;;;;5033662;28;20343;-40
2021/03/03 00:50:40;;;;;;;22.63;18.40;;;3.50;99.90;;;;;;5033425;28;20228;-40
2021/03/03 00:53:10;;;;;;;22.35;18.13;;;3.50;99.90;;;;;;5033698;28;20258;-40
2021/03/03 00:55:37;;;;;;;23.20;19.90;;;3.50;99.90;;;;;;5033917;28;20209;-41
2021/03/03 00:58:05;;;;;;;27.08;19.30;;;3.50;99.90;;;;;;5033466;28;20233;-40
2021/03/03 01:00:34;;;;;;;27.27;19.27;;;3.50;99.90;;;;;;5033654;28;20212;-41
2021/03/03 01:03:01;;;;;;;24.60;19.10;;;3.50;99.90;;;;;;5033188;28;20236;-39
2021/03/03 01:05:29;;;;;;;26.27;19.45;;;3.50;99.90;;;;;;5033226;28;20209;-41
2021/03/03 01:07:56;;;;;;;24.42;19.10;;;3.40;99.90;;;;;;5033016;28;20319;-39
2021/03/03 01:10:23;;;;;;;23.27;18.70;;;3.40;99.90;;;;;;5033470;28;20212;-42
2021/03/03 01:12:50;;;;;;;24.63;19.55;;;3.30;99.90;;;;;;5033143;28;20288;-41
2021/03/03 01:15:18;;;;;;;24.45;18.75;;;3.30;99.90;;;;;;5033205;28;20213;-41
2021/03/03 01:17:45;;;;;;;21.13;17.45;;;3.30;99.90;;;;;;5033128;28;20259;-42
2021/03/03 01:20:13;;;;;;;23.80;18.15;;;3.40;99.90;;;;;;5033030;28;20209;-41
2021/03/03 01:22:40;;;;;;;28.52;20.20;;;3.40;99.90;;;;;;5032769;28;20240;-41
2021/03/03 01:25:08;;;;;;;23.63;18.55;;;3.40;99.90;;;;;;5033007;28;20679;-41
2021/03/03 01:27:35;;;;;;;29.98;17.88;;;3.30;99.90;;;;;;5032923;28;20232;-41
2021/03/03 01:30:03;;;;;;;23.60;19.95;;;3.30;99.90;;;;;;5032809;28;20605;-41
2021/03/03 01:32:30;;;;;;;23.83;19.80;;;3.30;99.90;;;;;;5032861;28;20291;-40
2021/03/03 01:34:57;;;;;;;25.50;18.05;;;3.30;99.90;;;;;;5032612;28;20216;-42
2021/03/03 01:37:24;;;;;;;20.80;17.60;;;3.30;99.90;;;;;;5032757;28;20651;-40
2021/03/03 01:39:51;;;;;;;27.10;18.65;;;3.30;99.90;;;;;;5032717;28;20204;-40
2021/03/03 01:42:18;;;;;;;26.50;17.33;;;3.30;99.90;;;;;;5032553;28;20304;-40
2021/03/03 01:44:45;;;;;;;24.15;17.75;;;3.30;99.90;;;;;;5032524;28;20411;-40
2021/03/03 01:47:12;;;;;;;21.70;17.23;;;3.20;99.90;;;;;;5032414;28;20247;-40
2021/03/03 01:49:40;;;;;;;23.83;17.83;;;3.20;99.90;;;;;;5032458;28;20213;-40
2021/03/03 01:52:08;;;;;;;24.08;18.23;;;3.20;99.90;;;;;;5032539;28;20292;-40
2021/03/03 01:54:36;;;;;;;22.27;17.40;;;3.30;99.90;;;;;;5032475;28;20299;-41
2021/03/03 01:57:03;;;;;;;27.02;18.73;;;3.30;99.90;;;;;;5032565;28;20664;-40
2021/03/03 01:59:30;;;;;;;26.30;19.10;;;3.30;99.90;;;;;;5032345;28;20255;-40
2021/03/03 02:01:57;;;;;;;24.23;17.90;;;3.30;99.90;;;;;;5032115;28;20538;-41
2021/03/03 02:04:24;;;;;;;20.58;16.55;;;3.30;99.90;;;;;;5032474;28;20243;-44
2021/03/03 02:06:58;;;;;;;24.38;17.23;;;3.30;99.90;;;;;;5032466;28;20209;-46
2021/03/03 02:09:36;;;;;;;19.25;16.23;;;3.20;99.90;;;;;;5032201;28;20638;-42
2021/03/03 02:12:10;;;;;;;24.77;18.00;;;3.20;99.90;;;;;;5032319;28;20243;-46
2021/03/03 02:14:41;;;;;;;21.08;17.27;;;3.20;99.90;;;;;;5031958;28;20729;-43
2021/03/03 02:17:09;;;;;;;21.80;17.67;;;3.20;99.90;;;;;;5032265;28;20248;-45
2021/03/03 02:19:38;;;;;;;20.88;17.05;;;3.20;99.90;;;;;;5032022;28;20270;-44
2021/03/03 02:22:10;;;;;;;22.20;16.60;;;3.20;99.90;;;;;;5032218;28;20213;-38
2021/03/03 02:24:45;;;;;;;17.75;15.85;;;3.20;99.90;;;;;;5031912;28;20299;-38
2021/03/03 02:27:13;;;;;;;21.48;17.17;;;3.20;99.90;;;;;;5031756;28;20212;-42
2021/03/03 02:29:40;;;;;;;22.15;16.95;;;3.20;99.90;;;;;;5031969;28;20303;-40
2021/03/03 02:32:09;;;;;;;21.00;17.55;;;3.10;99.90;;;;;;5031674;28;20684;-39
2021/03/03 02:34:38;;;;;;;23.15;18.10;;;3.10;99.90;;;;;;5031413;28;20636;-38
2021/03/03 02:37:06;;;;;;;19.63;15.50;;;3.10;99.90;;;;;;5031853;28;20295;-38
2021/03/03 02:39:33;;;;;;;21.20;15.63;;;3.10;99.90;;;;;;5031697;28;20201;-38
2021/03/03 02:42:00;;;;;;;21.05;17.20;;;3.10;99.90;;;;;;5031965;28;20236;-38
2021/03/03 02:44:29;;;;;;;16.77;14.77;;;3.00;99.90;;;;;;5031796;28;20674;-38
2021/03/03 02:46:56;;;;;;;19.23;15.95;;;3.00;99.90;;;;;;5031953;28;20661;-38
2021/03/03 02:49:23;;;;;;;22.02;16.20;;;3.00;99.90;;;;;;5031997;28;20243;-38
2021/03/03 02:51:50;;;;;;;21.10;17.20;;;3.00;99.90;;;;;;5031660;28;20239;-38
2021/03/03 02:54:17;;;;;;;21.50;16.45;;;3.00;99.90;;;;;;5031594;28;20219;-38
2021/03/03 02:56:48;;;;;;;22.50;16.85;;;3.00;99.90;;;;;;5032041;28;20244;-37
2021/03/03 02:59:25;;;;;;;21.60;16.48;;;3.00;99.90;;;;;;5032007;28;20209;-37
2021/03/03 03:02:02;;;;;;;19.45;15.65;;;3.00;99.90;;;;;;5031577;28;20801;-38
2021/03/03 03:04:34;;;;;;;21.30;16.95;;;3.00;99.90;;;;;;5031587;28;20220;-38
2021/03/03 03:07:04;;;;;;;20.08;15.90;;;3.00;99.90;;;;;;5031837;28;20493;-38
2021/03/03 03:09:33;;;;;;;25.45;17.83;;;3.00;99.90;;;;;;5031534;28;20315;-38
2021/03/03 03:12:02;;;;;;;21.95;16.50;;;3.00;99.90;;;;;;5031432;28;20208;-39
2021/03/03 03:14:30;;;;;;;24.27;16.75;;;3.00;99.90;;;;;;5031549;28;20211;-40
2021/03/03 03:16:59;;;;;;;23.13;17.50;;;3.00;99.90;;;;;;5031455;28;20733;-40
2021/03/03 03:19:34;;;;;;;20.48;16.08;;;3.00;99.90;;;;;;5031701;28;20212;-40
2021/03/03 03:22:02;;;;;;;24.27;15.85;;;3.00;99.90;;;;;;5031521;28;20679;-40
2021/03/03 03:24:31;;;;;;;21.20;15.57;;;3.00;99.90;;;;;;5031590;28;20299;-40
2021/03/03 03:26:58;;;;;;;21.05;17.00;;;3.00;99.90;;;;;;5031502;28;20706;-40
2021/03/03 03:29:26;;;;;;;20.58;16.80;;;3.00;99.90;;;;;;5031308;28;20271;-40
2021/03/03 03:31:54;;;;;;;19.88;16.00;;;2.90;99.90;;;;;;5031646;28;20259;-39
2021/03/03 03:34:21;;;;;;;24.83;16.27;;;2.80;99.90;;;;;;5031601;28;20213;-40
2021/03/03 03:36:49;;;;;;;20.38;16.65;;;2.90;99.90;;;;;;5031509;28;20295;-40
2021/03/03 03:39:16;;;;;;;22.92;16.65;;;2.90;99.90;;;;;;5031244;28;20291;-40
2021/03/03 03:41:46;;;;;;;19.15;15.27;;;2.90;99.90;;;;;;5031467;28;20233;-40
2021/03/03 03:44:14;;;;;;;21.17;15.85;;;2.90;99.90;;;;;;5031253;28;20300;-40
2021/03/03 03:46:41;;;;;;;20.55;16.05;;;3.00;99.90;;;;;;5034621;28;20699;-40
2021/03/03 03:49:09;;;;;;;17.63;15.60;;;3.00;99.90;;;;;;5034730;28;20405;-40
2021/03/03 03:51:40;;;;;;;23.33;14.80;;;3.00;99.90;;;;;;5034779;28;20211;-40
2021/03/03 03:54:10;;;;;;;19.50;16.13;;;3.00;99.90;;;;;;5034783;28;20213;-42
2021/03/03 03:56:39;;;;;;;21.52;15.85;;;3.00;99.90;;;;;;5034855;28;20211;-39
2021/03/03 03:59:06;;;;;;;22.52;16.00;;;3.00;99.90;;;;;;5034653;28;20618;-41
2021/03/03 04:01:33;;;;;;;21.17;16.15;;;3.10;99.90;;;;;;5034979;28;20243;-41
2021/03/03 04:04:00;;;;;;;19.77;15.55;;;3.10;99.90;;;;;;5034509;28;20251;-40
2021/03/03 04:06:28;;;;;;;17.75;14.77;;;3.10;99.90;;;;;;5034321;28;20214;-40
2021/03/03 04:08:55;;;;;;;21.98;16.50;;;3.10;99.90;;;;;;5034378;28;20235;-39
2021/03/03 04:11:23;;;;;;;17.75;14.68;;;3.10;99.90;;;;;;5034263;28;20235;-39
2021/03/03 04:13:50;;;;;;;18.80;14.57;;;3.20;99.90;;;;;;5034494;28;20266;-39
2021/03/03 04:16:17;;;;;;;19.50;15.02;;;3.20;99.90;;;;;;5034306;28;20215;-40
2021/03/03 04:18:44;;;;;;;17.98;14.68;;;3.20;99.90;;;;;;5034292;28;20208;-40
2021/03/03 04:21:11;;;;;;;19.50;14.18;;;3.20;99.90;;;;;;5034150;28;20308;-41
2021/03/03 04:23:38;;;;;;;17.73;13.20;;;3.20;99.90;;;;;;5034160;28;20216;-40
2021/03/03 04:26:05;;;;;;;16.15;13.32;;;3.20;99.90;;;;;;5034265;28;20248;-40
2021/03/03 04:28:32;;;;;;;18.42;13.85;;;3.30;99.90;;;;;;5033997;28;20319;-40
2021/03/03 04:30:59;;;;;;;21.13;15.40;;;3.30;99.90;;;;;;5034121;28;20577;-39
2021/03/03 04:33:27;;;;;;;17.73;14.48;;;3.30;99.90;;;;;;5034133;28;20581;-39
2021/03/03 04:35:54;;;;;;;20.63;13.98;;;3.30;99.90;;;;;;5033926;28;20251;-42
2021/03/03 04:38:21;;;;;;;17.05;13.80;;;3.30;99.90;;;;;;5033882;28;20689;-40
2021/03/03 04:40:48;;;;;;;19.40;14.57;;;3.30;99.90;;;;;;5034063;28;20291;-41
2021/03/03 04:43:15;;;;;;;18.10;13.30;;;3.30;99.90;;;;;;5033904;28;20241;-40
2021/03/03 04:45:42;;;;;;;15.70;13.35;;;3.30;99.90;;;;;;5033704;28;20295;-40
2021/03/03 04:48:10;;;;;;;18.13;14.10;;;3.30;99.90;;;;;;5033572;28;20376;-40
2021/03/03 04:50:38;;;;;;;18.67;14.98;;;3.30;99.90;;;;;;5033746;28;20330;-39
2021/03/03 04:53:05;;;;;;;22.30;13.30;;;3.20;99.90;;;;;;5033864;28;20227;-41
2021/03/03 04:55:32;;;;;;;18.90;14.48;;;3.20;99.90;;;;;;5033307;28;20219;-41
2021/03/03 04:57:59;;;;;;;17.35;14.38;;;3.20;99.90;;;;;;5033855;28;20300;-40
2021/03/03 05:00:26;;;;;;;16.52;13.15;;;3.20;99.90;;;;;;5033505;28;20240;-42
2021/03/03 05:02:54;;;;;;;19.77;15.13;;;3.20;99.90;;;;;;5032895;28;20339;-40
2021/03/03 05:05:21;;;;;;;19.63;15.32;;;3.20;99.90;;;;;;5033180;28;20209;-43
2021/03/03 05:07:48;;;;;;;18.95;13.30;;;3.30;99.90;;;;;;5032982;28;20303;-41
2021/03/03 05:10:15;;;;;;;15.70;12.82;;;3.30;99.90;;;;;;5033157;28;20212;-41
2021/03/03 05:12:42;;;;;;;14.52;12.68;;;3.40;99.90;;;;;;5033178;28;20214;-41
2021/03/03 05:15:10;;;;;;;15.23;12.25;;;3.40;99.90;;;;;;5033223;28;20208;-42
2021/03/03 05:17:37;;;;;;;16.80;12.23;;;3.50;99.90;;;;;;5033278;28;20209;-41
2021/03/03 05:20:07;;;;;;;19.17;14.55;;;3.40;99.90;;;;;;5033046;28;20236;-41
2021/03/03 05:22:34;;;;;;;16.00;12.00;;;3.50;99.90;;;;;;5033057;28;20248;-41
2021/03/03 05:25:01;;;;;;;18.95;13.55;;;3.50;99.90;;;;;;5033036;28;20206;-41
2021/03/03 05:27:28;;;;;;;16.02;12.75;;;3.50;99.90;;;;;;5032723;28;20254;-41
2021/03/03 05:29:55;;;;;;;14.90;11.80;;;3.60;99.90;;;;;;5032581;28;20291;-42
2021/03/03 05:32:22;;;;;;;16.85;11.20;;;3.60;99.90;;;;;;5033182;28;20308;-42
2021/03/03 05:34:49;;;;;;;11.23;10.02;;;3.60;99.90;;;;;;5033058;28;20212;-41
2021/03/03 05:37:17;;;;;;;17.95;11.70;;;3.60;99.90;;;;;;5033188;28;20644;-42
2021/03/03 05:39:44;;;;;;;15.75;10.75;;;3.60;99.90;;;;;;5032933;28;20291;-41
2021/03/03 05:42:11;;;;;;;14.93;12.90;;;3.60;99.90;;;;;;5032839;28;20315;-42
2021/03/03 05:44:38;;;;;;;15.27;11.85;;;3.60;99.90;;;;;;5034297;28;20231;-42
2021/03/03 05:47:06;;;;;;;12.50;10.85;;;3.60;99.90;;;;;;5033082;28;20299;-41
2021/03/03 05:49:35;;;;;;;16.65;13.15;;;3.60;99.90;;;;;;5032720;28;20229;-40
2021/03/03 05:52:03;;;;;;;13.70;10.98;;;3.60;99.90;;;;;;5033092;28;20214;-40
2021/03/03 05:54:31;;;;;;;13.15;10.07;;;3.70;99.90;;;;;;5032791;28;20605;-40
2021/03/03 05:56:59;;;;;;;12.35;10.88;;;3.70;99.90;;;;;;5032360;28;20212;-41
2021/03/03 05:59:27;;;;;;;13.30;10.13;;;3.70;99.90;;;;;;5032337;28;20254;-38
2021/03/03 06:01:54;;;;;;;11.85;10.40;;;3.70;99.90;;;;;;5032583;28;20244;-41
2021/03/03 06:04:22;;;;;;;13.23;11.30;;;3.80;99.90;;;;;;5033168;28;20243;-41
2021/03/03 06:06:49;;;;;;;11.75;10.32;;;3.80;99.90;;;;;;5032443;28;20621;-39
2021/03/03 06:09:16;;;;;;;13.35;10.13;;;3.80;99.90;;;;;;5031794;28;20283;-40
2021/03/03 06:11:45;;;;;;;51.42;40.83;;;3.80;99.90;;;;;;5032273;28;20205;-40
2021/03/03 06:14:12;;;;;;;16.13;12.15;;;3.80;99.90;;;;;;5032191;28;20287;-41
2021/03/03 06:16:39;;;;;;;20.88;11.25;;;3.90;99.90;;;;;;5032165;28;20211;-41
2021/03/03 06:19:07;;;;;;;17.77;10.32;;;3.90;99.90;;;;;;5032431;28;20209;-42
2021/03/03 06:21:34;;;;;;;15.35;10.45;;;4.00;99.90;;;;;;5032055;28;20299;-42
2021/03/03 06:24:03;;;;;;;11.45;10.13;;;4.00;99.90;;;;;;5032004;28;20240;-43
2021/03/03 06:26:30;;;;;;;14.57;9.40;;;4.10;99.90;;;;;;5032111;28;20291;-43
2021/03/03 06:28:58;;;;;;;13.05;9.98;;;4.20;99.90;;;;;;5031926;28;20256;-42
2021/03/03 06:31:30;;;;;;;14.25;10.65;;;4.20;99.90;;;;;;5031799;28;20212;-41
2021/03/03 06:34:14;;;;;;;13.25;10.10;;;4.30;99.90;;;;;;5031972;28;20249;-39
2021/03/03 06:36:42;;;;;;;14.40;11.68;;;4.40;99.90;;;;;;5032064;28;20299;-43
2021/03/03 06:39:22;;;;;;;14.15;11.35;;;4.40;99.90;;;;;;5031659;28;20304;-43
2021/03/03 06:41:49;;;;;;;12.93;10.68;;;4.50;99.90;;;;;;5031949;28;20571;-42
2021/03/03 06:44:18;;;;;;;15.93;10.43;;;4.50;99.90;;;;;;5031671;28;20294;-42
2021/03/03 06:47:01;;;;;;;15.50;10.25;;;4.60;99.90;;;;;;5031872;28;20299;-41
2021/03/03 06:49:28;;;;;;;15.00;10.55;;;4.60;99.90;;;;;;5031689;28;20233;-43
2021/03/03 06:51:56;;;;;;;13.85;11.20;;;4.70;99.90;;;;;;5031946;28;20247;-44
2021/03/03 06:54:25;;;;;;;22.40;12.73;;;4.70;99.90;;;;;;5031747;28;20209;-42
2021/03/03 06:56:53;;;;;;;15.35;11.75;;;4.70;99.90;;;;;;5031573;28;20244;-41
2021/03/03 06:59:23;;;;;;;15.27;10.98;;;4.70;99.90;;;;;;5031583;28;20244;-41
2021/03/03 07:01:51;;;;;;;16.90;11.18;;;4.80;99.90;;;;;;5031560;28;20244;-40
2021/03/03 07:04:27;;;;;;;28.23;11.63;;;4.90;99.90;;;;;;5031594;28;20297;-41
2021/03/03 07:06:56;;;;;;;13.57;11.02;;;5.00;99.90;;;;;;5031697;28;20286;-41
2021/03/03 07:09:25;;;;;;;12.90;9.93;;;5.00;99.90;;;;;;5031588;28;20287;-40
2021/03/03 07:12:02;;;;;;;21.73;10.40;;;5.10;99.90;;;;;;5031692;28;20204;-41
2021/03/03 07:14:31;;;;;;;20.00;12.95;;;5.20;99.90;;;;;;5031354;28;20247;-41
2021/03/03 07:17:07;;;;;;;17.17;12.18;;;5.20;99.90;;;;;;5031338;28;20205;-41
2021/03/03 07:19:35;;;;;;;14.35;11.27;;;5.30;99.90;;;;;;5032888;28;20200;-40
2021/03/03 07:22:03;;;;;;;14.63;11.00;;;5.30;99.90;;;;;;5035202;28;20587;-40
2021/03/03 07:24:32;;;;;;;14.15;12.75;;;5.40;99.90;;;;;;5035172;28;20244;-42
2021/03/03 07:27:00;;;;;;;18.30;12.75;;;5.50;99.90;;;;;;5035117;28;20278;-43
2021/03/03 07:29:27;;;;;;;18.27;11.20;;;5.60;99.90;;;;;;5035560;28;20239;-43
2021/03/03 07:31:55;;;;;;;17.17;12.52;;;5.70;99.90;;;;;;5035362;28;20222;-42
2021/03/03 07:34:22;;;;;;;13.45;10.25;;;5.80;99.90;;;;;;5035095;28;20222;-44
2021/03/03 07:36:51;;;;;;;20.60;10.15;;;5.90;99.90;;;;;;5034921;28;20212;-42
2021/03/03 07:39:21;;;;;;;16.45;10.57;;;6.00;99.90;;;;;;5035007;28;20208;-43
2021/03/03 07:41:48;;;;;;;29.40;11.57;;;6.10;99.80;;;;;;5034822;28;20617;-44
2021/03/03 07:44:21;;;;;;;15.93;10.88;;;6.20;99.60;;;;;;5034863;28;20594;-44
2021/03/03 07:46:49;;;;;;;17.27;10.88;;;6.30;99.60;;;;;;5034841;28;20234;-40
2021/03/03 07:49:24;;;;;;;13.27;10.68;;;6.40;99.40;;;;;;5034752;28;20220;-40
2021/03/03 07:51:52;;;;;;;18.27;11.70;;;6.40;99.20;;;;;;5034744;28;20307;-41
2021/03/03 07:54:19;;;;;;;16.38;10.68;;;6.50;99.10;;;;;;5034721;28;20304;-41
2021/03/03 07:56:46;;;;;;;10.05;8.85;;;6.60;98.90;;;;;;5034834;28;20266;-42
2021/03/03 07:59:14;;;;;;;16.33;10.20;;;6.70;98.70;;;;;;5034788;28;20263;-41
2021/03/03 08:01:41;;;;;;;14.85;9.98;;;6.80;98.50;;;;;;5034707;28;20259;-41
2021/03/03 08:04:09;;;;;;;9.20;8.30;;;6.90;98.40;;;;;;5034054;28;20238;-41
2021/03/03 08:06:39;;;;;;;13.02;10.07;;;6.90;98.30;;;;;;5034559;28;20678;-41
2021/03/03 08:09:14;;;;;;;19.75;12.70;;;7.10;98.10;;;;;;5034516;28;20228;-41
2021/03/03 08:11:44;;;;;;;16.80;10.38;;;7.20;97.90;;;;;;5034424;28;20641;-41
2021/03/03 08:14:31;;;;;;;15.10;8.82;;;7.30;97.70;;;;;;5034270;28;20573;-41
2021/03/03 08:16:59;;;;;;;10.73;8.35;;;7.40;97.40;;;;;;5034166;28;20237;-41
2021/03/03 08:19:52;;;;;;;14.68;9.27;;;7.40;97.30;;;;;;5034353;28;20209;-41
2021/03/03 08:22:21;;;;;;;9.20;8.05;;;7.50;97.00;;;;;;5033734;28;20259;-41
2021/03/03 08:24:48;;;;;;;13.23;9.05;;;7.50;97.00;;;;;;5033624;28;20216;-41
2021/03/03 08:27:37;;;;;;;11.48;9.13;;;7.60;97.00;;;;;;5033559;28;20244;-41
2021/03/03 08:30:18;;;;;;;13.15;8.70;;;7.60;96.80;;;;;;5033474;28;20264;-41
2021/03/03 08:32:45;;;;;;;13.75;9.00;;;7.50;97.00;;;;;;5033840;28;20303;-41
2021/03/03 08:35:12;;;;;;;23.65;10.07;;;7.60;97.10;;;;;;5033887;28;20213;-42
2021/03/03 08:37:40;;;;;;;12.25;9.07;;;7.60;97.00;;;;;;5033875;28;20303;-41
2021/03/03 08:40:25;;;;;;;11.38;8.45;;;7.70;96.80;;;;;;5033652;28;20300;-41
2021/03/03 08:42:52;;;;;;;12.38;8.45;;;7.70;96.40;;;;;;5033811;28;20365;-41
2021/03/03 08:45:20;;;;;;;15.30;8.38;;;7.80;96.40;;;;;;5033780;28;20212;-40
2021/03/03 08:47:59;;;;;;;22.98;9.25;;;7.90;96.40;;;;;;5033516;28;20216;-41
2021/03/03 08:50:31;;;;;;;10.95;8.88;;;8.00;96.20;;;;;;5033259;28;20708;-39
2021/03/03 08:53:25;;;;;;;14.55;8.27;;;8.00;96.00;;;;;;5033699;28;20204;-40
2021/03/03 08:55:54;;;;;;;15.20;8.95;;;8.20;95.70;;;;;;5033422;28;20240;-39
2021/03/03 08:58:57;;;;;;;14.05;8.32;;;8.20;95.60;;;;;;5032899;28;20702;-40
2021/03/03 09:01:53;;;;;;;11.40;7.88;;;8.30;95.40;;;;;;5033124;28;20247;-40
2021/03/03 09:04:23;;;;;;;15.35;8.23;;;8.50;95.20;;;;;;5033266;28;20212;-40
2021/03/03 09:06:51;;;;;;;16.83;8.82;;;8.70;94.90;;;;;;5033074;28;20299;-40
2021/03/03 09:09:20;;;;;;;24.08;8.38;;;8.90;94.60;;;;;;5033063;28;20235;-40
2021/03/03 09:11:47;;;;;;;46.90;12.23;;;9.00;94.40;;;;;;5033004;28;20617;-40
2021/03/03 09:14:19;;;;;;;13.98;8.10;;;9.00;94.20;;;;;;5033399;28;20209;-40
2021/03/03 09:16:57;;;;;;;27.00;11.07;;;9.20;93.90;;;;;;5033005;28;20264;-40
2021/03/03 09:19:25;;;;;;;10.70;8.48;;;9.20;93.70;;;;;;5033114;28;20677;-41
2021/03/03 09:21:52;;;;;;;12.13;7.65;;;9.30;93.60;;;;;;5032944;28;20209;-40
2021/03/03 09:24:20;;;;;;;14.75;7.35;;;9.50;93.30;;;;;;5032843;28;20212;-40
2021/03/03 09:26:47;;;;;;;15.50;7.97;;;9.60;93.00;;;;;;5032825;28;20208;-41
2021/03/03 09:29:29;;;;;;;57.40;17.77;;;9.80;92.70;;;;;;5032666;28;20395;-41
2021/03/03 09:31:56;;;;;;;12.90;7.18;;;9.90;92.00;;;;;;5032681;28;20209;-39
2021/03/03 09:34:24;;;;;;;11.40;8.85;;;10.00;92.00;;;;;;5032622;28;20223;-39
2021/03/03 09:36:58;;;;;;;11.43;7.57;;;10.10;91.90;;;;;;5032527;28;20251;-40
2021/03/03 09:39:26;;;;;;;11.73;8.27;;;10.10;91.80;;;;;;5032609;28;20283;-40
2021/03/03 09:41:58;;;;;;;10.45;7.45;;;10.20;91.70;;;;;;5032477;28;20672;-40
2021/03/03 09:44:25;;;;;;;11.77;8.45;;;10.30;91.50;;;;;;5032457;28;20240;-40
2021/03/03 09:46:54;;;;;;;11.82;6.88;;;10.40;91.30;;;;;;5032376;28;20747;-40
2021/03/03 09:49:23;;;;;;;10.50;7.57;;;10.50;91.10;;;;;;5032512;28;20239;-41
2021/03/03 09:51:50;;;;;;;7.75;7.05;;;10.60;90.90;;;;;;5032355;28;20209;-40
2021/03/03 09:54:33;;;;;;;11.68;6.55;;;10.70;90.60;;;;;;5032279;28;20651;-41
2021/03/03 09:57:05;;;;;;;13.10;7.20;;;10.80;90.40;;;;;;5032199;28;20250;-40
2021/03/03 09:59:33;;;;;;;21.00;8.07;;;10.90;90.20;;;;;;5032250;28;20216;-40
2021/03/03 10:02:01;;;;;;;15.13;6.75;;;10.90;90.10;;;;;;5032045;28;20244;-40
2021/03/03 10:04:30;;;;;;;12.52;6.60;;;11.00;89.80;;;;;;5032147;28;20609;-40
2021/03/03 10:07:10;;;;;;;14.77;7.60;;;11.20;89.30;;;;;;5032064;28;20208;-41
2021/03/03 10:09:42;;;;;;;14.73;9.88;;;11.30;88.60;;;;;;5031961;28;20764;-39
2021/03/03 10:12:11;;;;;;;10.93;6.55;;;11.40;88.30;;;;;;5031879;28;20733;-40
2021/03/03 10:15:01;;;;;;;6.38;5.60;;;11.40;88.00;;;;;;5031709;28;20295;-41
2021/03/03 10:17:31;;;;;;;12.13;7.38;;;11.40;87.10;;;;;;5031911;28;20216;-41
2021/03/03 10:19:59;;;;;;;10.57;8.68;;;11.50;87.60;;;;;;5032156;28;20240;-42
2021/03/03 10:22:27;;;;;;;10.60;5.85;;;11.50;87.00;;;;;;5032174;28;20634;-42
2021/03/03 10:25:12;;;;;;;8.82;6.10;;;11.60;86.50;;;;;;5032056;28;20263;-41
2021/03/03 10:27:41;;;;;;;8.75;6.15;;;11.70;85.50;;;;;;5031803;28;20635;-41
2021/03/03 10:30:23;;;;;;;8.38;6.75;;;11.80;85.50;;;;;;5031395;28;20658;-42
2021/03/03 10:32:52;;;;;;;29.95;16.25;;;11.90;84.50;;;;;;5032200;28;20318;-42
2021/03/03 10:35:21;;;;;;;13.20;9.38;;;12.00;84.40;;;;;;5031805;28;20245;-42
2021/03/03 10:37:48;;;;;;;17.00;9.20;;;12.10;83.90;;;;;;5031719;28;20251;-42
2021/03/03 10:40:18;;;;;;;8.57;6.65;;;12.20;83.40;;;;;;5031556;28;20228;-41
2021/03/03 10:42:45;;;;;;;23.95;11.93;;;12.30;82.40;;;;;;5031308;28;20232;-41
2021/03/03 10:45:23;;;;;;;7.78;7.00;;;12.30;82.50;;;;;;5031517;28;20295;-41
2021/03/03 10:47:51;;;;;;;9.43;6.72;;;12.30;82.10;;;;;;5032063;28;20262;-41
2021/03/03 10:50:32;;;;;;;10.10;8.13;;;12.40;82.00;;;;;;5031864;28;20232;-42
2021/03/03 10:53:01;;;;;;;12.77;7.60;;;12.40;82.00;;;;;;5031869;28;20300;-41
2021/03/03 10:55:34;;;;;;;12.43;8.20;;;12.30;81.30;;;;;;5034763;28;20239;-41
2021/03/03 10:58:07;;;;;;;10.70;8.25;;;12.20;81.20;;;;;;5035825;28;20512;-40
2021/03/03 11:01:02;;;;;;;9.05;8.15;;;12.20;81.40;;;;;;5036809;28;20235;-41
2021/03/03 11:03:31;;;;;;;10.80;8.90;;;12.10;80.90;;;;;;5035749;28;20645;-41
2021/03/03 11:05:59;;;;;;;9.95;8.70;;;12.10;80.90;;;;;;5035426;28;20219;-42
2021/03/03 11:08:33;;;;;;;8.85;7.82;;;12.10;80.70;;;;;;5035736;28;20564;-42
2021/03/03 11:11:05;;;;;;;9.40;7.90;;;12.10;80.80;;;;;;5035030;28;20258;-41
2021/03/03 11:13:33;;;;;;;17.63;10.00;;;12.10;79.80;;;;;;5035432;28;20299;-41
2021/03/03 11:16:05;;;;;;;11.15;9.38;;;12.10;80.00;;;;;;5035644;28;20216;-41
2021/03/03 11:18:38;;;;;;;9.05;7.93;;;12.10;80.00;;;;;;5035184;28;20208;-41
2021/03/03 11:21:05;;;;;;;11.90;8.30;;;12.20;79.90;;;;;;5035281;28;20263;-40
2021/03/03 11:23:32;;;;;;;12.68;9.77;;;12.30;79.60;;;;;;5034754;28;20211;-42
2021/03/03 11:26:00;;;;;;;12.48;10.60;;;12.30;79.30;;;;;;5035247;28;20299;-41
2021/03/03 11:28:28;;;;;;;12.35;10.57;;;12.40;79.40;;;;;;5034938;28;20299;-41
2021/03/03 11:30:55;;;;;;;11.45;10.18;;;12.50;79.10;;;;;;5034701;28;20660;-41
2021/03/03 11:33:25;;;;;;;12.93;9.05;;;12.60;78.70;;;;;;5035007;28;20220;-41
2021/03/03 11:35:52;;;;;;;12.52;11.05;;;12.70;78.30;;;;;;5035171;28;20243;-41
2021/03/03 11:38:28;;;;;;;14.57;11.35;;;12.70;78.20;;;;;;5034904;28;20216;-42
2021/03/03 11:40:55;;;;;;;13.88;10.93;;;12.70;77.60;;;;;;5034351;28;20624;-42
2021/03/03 11:43:22;;;;;;;15.93;11.13;;;12.70;76.90;;;;;;5034464;28;20315;-42
2021/03/03 11:45:49;;;;;;;13.30;11.35;;;12.70;76.60;;;;;;5034585;28;20703;-42
2021/03/03 11:48:16;;;;;;;13.05;10.82;;;12.60;76.50;;;;;;5034204;28;20304;-41
2021/03/03 11:50:44;;;;;;;13.15;11.75;;;12.70;76.60;;;;;;5034513;28;20229;-44
2021/03/03 11:53:11;;;;;;;17.15;11.63;;;12.80;76.00;;;;;;5034452;28;20296;-42
2021/03/03 11:55:38;;;;;;;16.90;13.18;;;12.90;75.80;;;;;;5034747;28;20599;-42
2021/03/03 11:58:05;;;;;;;14.10;11.88;;;13.00;75.60;;;;;;5034628;28;20205;-42
2021/03/03 12:00:32;;;;;;;13.95;11.35;;;13.10;75.20;;;;;;5034555;28;20258;-43
2021/03/03 12:03:01;;;;;;;13.48;10.85;;;13.10;75.00;;;;;;5034262;28;20331;-42
2021/03/03 12:05:29;;;;;;;15.88;11.50;;;13.10;75.00;;;;;;5033246;28;20209;-42
2021/03/03 12:07:56;;;;;;;17.77;12.60;;;13.20;74.90;;;;;;5034647;28;20267;-42
2021/03/03 12:10:24;;;;;;;12.98;11.65;;;13.20;74.60;;;;;;5034471;28;20654;-41
2021/03/03 12:12:51;;;;;;;15.75;11.75;;;13.20;74.60;;;;;;5034546;28;20288;-42
2021/03/03 12:15:18;;;;;;;13.45;10.80;;;13.30;74.40;;;;;;5034427;28;20299;-42
2021/03/03 12:17:45;;;;;;;14.52;13.02;;;13.30;74.30;;;;;;5034090;28;20637;-41
2021/03/03 12:20:30;;;;;;;14.63;12.55;;;13.30;74.30;;;;;;5034159;28;20630;-42
2021/03/03 12:22:58;;;;;;;14.77;12.35;;;13.30;74.10;;;;;;5033976;28;20213;-41
2021/03/03 12:25:28;;;;;;;13.82;11.80;;;13.30;74.00;;;;;;5034154;28;20308;-41
2021/03/03 12:27:56;;;;;;;13.45;11.68;;;13.30;73.90;;;;;;5034076;28;20274;-44
2021/03/03 12:30:23;;;;;;;16.92;11.98;;;13.30;73.70;;;;;;5033777;28;20323;-44
2021/03/03 12:32:50;;;;;;;17.23;12.80;;;13.30;73.80;;;;;;5033621;28;20216;-41
2021/03/03 12:35:18;;;;;;;15.10;12.50;;;13.30;73.50;;;;;;5033859;28;20667;-41
2021/03/03 12:37:46;;;;;;;17.55;11.95;;;13.30;73.70;;;;;;5034092;28;20299;-42
2021/03/03 12:40:13;;;;;;;18.02;11.18;;;13.30;73.90;;;;;;5033792;28;20239;-44
2021/03/03 12:42:40;;;;;;;14.50;11.73;;;13.20;73.60;;;;;;5033989;28;20212;-42
2021/03/03 12:45:08;;;;;;;16.25;12.40;;;13.30;73.90;;;;;;5033667;28;20251;-42
2021/03/03 12:47:35;;;;;;;22.50;12.98;;;13.30;73.90;;;;;;5033722;28;20248;-42
2021/03/03 12:50:04;;;;;;;15.45;12.18;;;13.30;73.80;;;;;;5033475;28;20582;-41